createdAt,value
2018-07-24T00:00:34.098Z,17.87
2018-07-24T00:01:34.004Z,17.86
2018-07-24T00:02:33.957Z,17.90
2018-07-24T00:03:33.911Z,17.89
2018-07-24T00:04:33.869Z,18.00
2018-07-24T00:05:33.868Z,18.01
2018-07-24T00:06:33.780Z,18.05
2018-07-24T00:07:33.735Z,18.08
2018-07-24T00:08:33.693Z,18.11
2018-07-24T00:09:33.648Z,18.16
2018-07-24T00:10:33.653Z,18.16
2018-07-24T00:11:33.559Z,18.19
2018-07-24T00:12:33.515Z,18.25
2018-07-24T00:13:33.476Z,18.29
2018-07-24T00:14:33.428Z,18.28
2018-07-24T00:15:33.414Z,18.33
2018-07-24T00:16:33.338Z,18.26
2018-07-24T00:17:33.293Z,18.28
2018-07-24T00:18:33.254Z,18.28
2018-07-24T00:19:33.232Z,18.43
2018-07-24T00:20:33.201Z,18.38
2018-07-24T00:21:33.121Z,18.28
2018-07-24T00:22:33.072Z,18.34
2018-07-24T00:23:33.031Z,18.35
2018-07-24T00:24:32.985Z,18.40
2018-07-24T00:25:32.978Z,18.31
2018-07-24T00:26:32.896Z,18.35
2018-07-24T00:27:32.850Z,18.34
2018-07-24T00:28:32.805Z,18.20
2018-07-24T00:29:32.770Z,18.15
2018-07-24T00:30:32.750Z,18.08
2018-07-24T00:31:32.719Z,18.04
2018-07-24T00:32:32.629Z,18.01
2018-07-24T00:33:32.584Z,17.90
2018-07-24T00:34:32.568Z,17.80
2018-07-24T00:35:32.494Z,17.72
2018-07-24T00:36:32.490Z,17.78
2018-07-24T00:37:32.410Z,17.78
2018-07-24T00:38:32.361Z,17.76
2018-07-24T00:39:32.320Z,17.72
2018-07-24T00:40:32.273Z,17.72
2018-07-24T00:41:32.270Z,17.67
2018-07-24T00:42:32.186Z,17.64
2018-07-24T00:43:32.140Z,17.60
2018-07-24T00:44:32.095Z,17.49
2018-07-24T00:45:32.050Z,17.45
2018-07-24T00:46:32.038Z,17.49
2018-07-24T00:47:31.998Z,17.42
2018-07-24T00:48:31.918Z,17.39
2018-07-24T00:49:31.873Z,17.38
2018-07-24T00:50:31.827Z,17.42
2018-07-24T00:51:31.815Z,17.33
2018-07-24T00:52:31.740Z,17.46
2018-07-24T00:53:31.695Z,17.38
2018-07-24T00:54:31.646Z,17.42
2018-07-24T00:55:31.603Z,17.26
2018-07-24T00:56:31.603Z,17.30
2018-07-24T00:57:31.517Z,17.41
2018-07-24T00:58:31.473Z,17.38
2018-07-24T00:59:31.427Z,17.42
2018-07-24T01:00:31.390Z,17.27
2018-07-24T01:01:31.367Z,17.34
2018-07-24T01:02:31.294Z,17.48
2018-07-24T01:03:31.246Z,17.38
2018-07-24T01:04:31.212Z,17.45
2018-07-24T01:05:31.190Z,17.44
2018-07-24T01:06:31.111Z,17.51
2018-07-24T01:07:31.068Z,17.52
2018-07-24T01:08:31.032Z,17.57
2018-07-24T01:09:31.032Z,17.59
2018-07-24T01:10:30.934Z,17.68
2018-07-24T01:11:30.891Z,17.71
2018-07-24T01:12:30.854Z,17.74
2018-07-24T01:13:30.799Z,17.76
2018-07-24T01:14:30.803Z,17.79
2018-07-24T01:15:30.708Z,17.78
2018-07-24T01:16:30.667Z,17.80
2018-07-24T01:17:30.620Z,17.82
2018-07-24T01:18:30.576Z,17.67
2018-07-24T01:19:30.563Z,17.59
2018-07-24T01:20:30.518Z,17.48
2018-07-24T01:21:30.441Z,17.45
2018-07-24T01:22:30.395Z,17.38
2018-07-24T01:23:30.384Z,17.39
2018-07-24T01:24:30.304Z,17.41
2018-07-24T01:25:30.261Z,17.30
2018-07-24T01:26:30.241Z,17.29
2018-07-24T01:27:30.175Z,17.27
2018-07-24T01:28:30.126Z,17.24
2018-07-24T01:29:30.080Z,17.24
2018-07-24T01:30:30.036Z,17.20
2018-07-24T01:31:30.023Z,17.23
2018-07-24T01:32:29.946Z,17.16
2018-07-24T01:33:29.904Z,17.16
2018-07-24T01:34:29.858Z,17.02
2018-07-24T01:35:29.811Z,17.12
2018-07-24T01:36:29.807Z,17.15
2018-07-24T01:37:29.725Z,17.14
2018-07-24T01:38:29.679Z,17.04
2018-07-24T01:39:29.629Z,17.05
2018-07-24T01:40:29.595Z,17.11
2018-07-24T01:41:29.576Z,16.97
2018-07-24T01:42:29.536Z,17.11
2018-07-24T01:43:29.450Z,17.14
2018-07-24T01:44:29.405Z,17.11
2018-07-24T01:45:29.361Z,17.06
2018-07-24T01:46:29.314Z,17.02
2018-07-24T01:47:29.308Z,17.02
2018-07-24T01:48:29.225Z,17.01
2018-07-24T01:49:29.184Z,17.12
2018-07-24T01:50:29.133Z,17.06
2018-07-24T01:51:29.089Z,17.14
2018-07-24T01:52:29.092Z,17.05
2018-07-24T01:53:29.002Z,17.08
2018-07-24T01:54:28.951Z,17.02
2018-07-24T01:55:28.908Z,17.01
2018-07-24T01:56:28.865Z,17.01
2018-07-24T01:57:28.856Z,17.09
2018-07-24T01:58:28.822Z,17.01
2018-07-24T01:59:28.736Z,17.02
2018-07-24T02:00:28.684Z,17.08
2018-07-24T02:01:28.641Z,17.05
2018-07-24T02:02:28.595Z,16.93
2018-07-24T02:03:28.584Z,16.90
2018-07-24T02:04:28.504Z,16.87
2018-07-24T02:05:28.457Z,16.84
2018-07-24T02:06:28.412Z,16.83
2018-07-24T02:07:28.365Z,16.78
2018-07-24T02:08:28.363Z,16.66
2018-07-24T02:09:28.308Z,16.66
2018-07-24T02:10:28.235Z,16.61
2018-07-24T02:11:28.186Z,16.65
2018-07-24T02:12:28.138Z,16.60
2018-07-24T02:13:28.099Z,16.56
2018-07-24T02:14:28.099Z,16.57
2018-07-24T02:15:28.005Z,16.65
2018-07-24T02:16:27.958Z,16.61
2018-07-24T02:17:27.915Z,16.58
2018-07-24T02:18:27.869Z,16.61
2018-07-24T02:19:27.860Z,16.64
2018-07-24T02:20:27.807Z,16.64
2018-07-24T02:21:27.732Z,16.64
2018-07-24T02:22:27.686Z,16.69
2018-07-24T02:23:27.640Z,16.61
2018-07-24T02:24:27.594Z,16.64
2018-07-24T02:25:27.581Z,16.60
2018-07-24T02:26:27.507Z,16.58
2018-07-24T02:27:27.462Z,16.53
2018-07-24T02:28:27.413Z,16.53
2018-07-24T02:29:27.372Z,16.50
2018-07-24T02:30:27.365Z,16.51
2018-07-24T02:31:27.277Z,16.56
2018-07-24T02:32:27.237Z,16.56
2018-07-24T02:33:27.184Z,16.57
2018-07-24T02:34:27.141Z,16.57
2018-07-24T02:35:27.136Z,16.57
2018-07-24T02:36:27.048Z,16.66
2018-07-24T02:37:27.003Z,16.68
2018-07-24T02:38:26.962Z,16.69
2018-07-24T02:39:26.912Z,16.78
2018-07-24T02:40:26.916Z,16.83
2018-07-24T02:41:26.823Z,16.75
2018-07-24T02:42:26.774Z,16.83
2018-07-24T02:43:26.764Z,16.84
2018-07-24T02:44:26.684Z,16.84
2018-07-24T02:45:26.640Z,16.83
2018-07-24T02:46:26.592Z,16.86
2018-07-24T02:47:26.547Z,16.89
2018-07-24T02:48:26.536Z,16.84
2018-07-24T02:49:26.465Z,16.84
2018-07-24T02:50:26.413Z,16.75
2018-07-24T02:51:26.365Z,16.79
2018-07-24T02:52:26.323Z,16.78
2018-07-24T02:53:26.309Z,16.78
2018-07-24T02:54:26.262Z,16.87
2018-07-24T02:55:26.214Z,16.86
2018-07-24T02:56:26.137Z,16.84
2018-07-24T02:57:26.093Z,16.81
2018-07-24T02:58:26.080Z,16.74
2018-07-24T02:59:26.000Z,16.72
2018-07-24T03:00:25.971Z,16.78
2018-07-24T03:01:25.912Z,16.79
2018-07-24T03:02:25.905Z,16.75
2018-07-24T03:03:25.819Z,16.76
2018-07-24T03:04:25.779Z,16.83
2018-07-24T03:05:25.727Z,16.78
2018-07-24T03:06:25.681Z,16.72
2018-07-24T03:07:25.665Z,16.66
2018-07-24T03:08:25.593Z,16.60
2018-07-24T03:09:25.588Z,16.60
2018-07-24T03:10:25.503Z,16.57
2018-07-24T03:11:25.453Z,16.56
2018-07-24T03:12:25.409Z,16.50
2018-07-24T03:13:25.371Z,16.39
2018-07-24T03:14:25.360Z,16.39
2018-07-24T03:15:25.271Z,16.29
2018-07-24T03:16:25.366Z,16.32
2018-07-24T03:17:25.183Z,16.35
2018-07-24T03:18:25.134Z,16.32
2018-07-24T03:19:25.156Z,16.26
2018-07-24T03:20:25.042Z,16.26
2018-07-24T03:21:24.999Z,16.35
2018-07-24T03:22:24.952Z,16.31
2018-07-24T03:23:24.906Z,16.24
2018-07-24T03:24:24.900Z,16.20
2018-07-24T03:25:24.814Z,16.20
2018-07-24T03:26:24.767Z,16.26
2018-07-24T03:27:24.723Z,16.23
2018-07-24T03:28:24.681Z,16.24
2018-07-24T03:29:24.665Z,16.16
2018-07-24T03:30:24.588Z,16.32
2018-07-24T03:31:24.578Z,16.26
2018-07-24T03:32:24.492Z,16.32
2018-07-24T03:33:24.447Z,16.26
2018-07-24T03:34:24.400Z,16.32
2018-07-24T03:35:24.356Z,16.31
2018-07-24T03:36:24.342Z,16.29
2018-07-24T03:37:24.266Z,16.29
2018-07-24T03:38:24.251Z,16.29
2018-07-24T03:39:24.172Z,16.26
2018-07-24T03:40:24.160Z,16.35
2018-07-24T03:41:24.081Z,16.26
2018-07-24T03:42:24.034Z,16.29
2018-07-24T03:43:24.029Z,16.26
2018-07-24T03:44:23.943Z,16.23
2018-07-24T03:45:23.901Z,16.29
2018-07-24T03:46:23.851Z,16.33
2018-07-24T03:47:23.805Z,16.26
2018-07-24T03:48:23.795Z,16.38
2018-07-24T03:49:23.715Z,16.28
2018-07-24T03:50:23.665Z,16.36
2018-07-24T03:51:23.625Z,16.41
2018-07-24T03:52:23.581Z,16.49
2018-07-24T03:53:23.614Z,16.41
2018-07-24T03:54:23.490Z,16.46
2018-07-24T03:55:23.441Z,16.49
2018-07-24T03:56:23.393Z,16.56
2018-07-24T03:57:23.349Z,16.64
2018-07-24T03:58:23.340Z,16.58
2018-07-24T03:59:23.255Z,16.68
2018-07-24T04:00:23.211Z,16.60
2018-07-24T04:01:23.170Z,16.61
2018-07-24T04:02:23.171Z,16.61
2018-07-24T04:03:23.110Z,16.60
2018-07-24T04:04:23.030Z,16.68
2018-07-24T04:05:22.982Z,16.60
2018-07-24T04:06:22.934Z,16.71
2018-07-24T04:07:22.888Z,16.74
2018-07-24T04:08:22.876Z,16.74
2018-07-24T04:09:22.796Z,16.79
2018-07-24T04:10:22.752Z,16.71
2018-07-24T04:11:22.745Z,16.81
2018-07-24T04:12:22.662Z,16.76
2018-07-24T04:13:22.617Z,16.81
2018-07-24T04:14:22.565Z,16.78
2018-07-24T04:15:22.522Z,16.76
2018-07-24T04:16:22.525Z,16.79
2018-07-24T04:17:22.431Z,16.66
2018-07-24T04:18:22.390Z,16.65
2018-07-24T04:19:22.340Z,16.66
2018-07-24T04:20:22.293Z,16.56
2018-07-24T04:21:22.295Z,16.65
2018-07-24T04:22:22.204Z,16.57
2018-07-24T04:23:22.157Z,16.57
2018-07-24T04:24:22.113Z,16.60
2018-07-24T04:25:22.062Z,16.54
2018-07-24T04:26:22.062Z,16.58
2018-07-24T04:27:21.978Z,16.57
2018-07-24T04:28:21.932Z,16.54
2018-07-24T04:29:21.882Z,16.65
2018-07-24T04:30:21.834Z,16.56
2018-07-24T04:31:21.821Z,16.60
2018-07-24T04:32:21.742Z,16.65
2018-07-24T04:33:21.696Z,16.66
2018-07-24T04:34:21.651Z,16.64
2018-07-24T04:35:21.605Z,16.56
2018-07-24T04:36:21.592Z,16.51
2018-07-24T04:37:21.545Z,16.64
2018-07-24T04:38:21.469Z,16.53
2018-07-24T04:39:21.423Z,16.49
2018-07-24T04:40:21.441Z,16.46
2018-07-24T04:41:21.332Z,16.43
2018-07-24T04:42:21.284Z,16.39
2018-07-24T04:43:21.244Z,16.46
2018-07-24T04:44:21.193Z,16.35
2018-07-24T04:45:21.189Z,16.42
2018-07-24T04:46:21.100Z,16.36
2018-07-24T04:47:21.056Z,16.46
2018-07-24T04:48:21.013Z,16.49
2018-07-24T04:49:20.966Z,16.38
2018-07-24T04:50:20.966Z,16.35
2018-07-24T04:51:20.873Z,16.42
2018-07-24T04:52:20.826Z,16.51
2018-07-24T04:53:20.783Z,16.56
2018-07-24T04:54:20.732Z,16.57
2018-07-24T04:55:20.727Z,16.60
2018-07-24T04:56:20.644Z,16.65
2018-07-24T04:57:20.598Z,16.66
2018-07-24T04:58:20.551Z,16.76
2018-07-24T04:59:20.504Z,16.74
2018-07-24T05:00:20.493Z,16.84
2018-07-24T05:01:20.414Z,16.87
2018-07-24T05:02:20.416Z,16.90
2018-07-24T05:03:20.384Z,16.86
2018-07-24T05:04:20.276Z,17.02
2018-07-24T05:05:20.232Z,17.01
2018-07-24T05:06:20.183Z,17.02
2018-07-24T05:07:20.177Z,17.12
2018-07-24T05:08:20.092Z,17.16
2018-07-24T05:09:20.048Z,17.15
2018-07-24T05:10:20.045Z,17.12
2018-07-24T05:11:19.959Z,17.14
2018-07-24T05:12:19.944Z,17.15
2018-07-24T05:13:19.866Z,17.23
2018-07-24T05:14:19.869Z,17.23
2018-07-24T05:15:19.773Z,17.30
2018-07-24T05:16:19.729Z,17.27
2018-07-24T05:17:19.686Z,17.39
2018-07-24T05:18:19.636Z,17.41
2018-07-24T05:19:19.622Z,17.30
2018-07-24T05:20:19.546Z,17.38
2018-07-24T05:21:19.501Z,17.54
2018-07-24T05:22:19.455Z,17.45
2018-07-24T05:23:19.414Z,17.44
2018-07-24T05:24:19.401Z,17.54
2018-07-24T05:25:19.320Z,17.51
2018-07-24T05:26:19.272Z,17.51
2018-07-24T05:27:19.226Z,17.59
2018-07-24T05:28:19.184Z,17.54
2018-07-24T05:29:19.166Z,17.64
2018-07-24T05:30:19.091Z,17.65
2018-07-24T05:31:19.045Z,17.70
2018-07-24T05:32:19.004Z,17.71
2018-07-24T05:33:19.022Z,17.74
2018-07-24T05:34:18.941Z,17.83
2018-07-24T05:35:18.898Z,17.78
2018-07-24T05:36:18.817Z,17.86
2018-07-24T05:37:18.773Z,17.85
2018-07-24T05:38:18.759Z,17.86
2018-07-24T05:39:18.683Z,17.85
2018-07-24T05:40:18.669Z,17.98
2018-07-24T05:41:18.592Z,18.00
2018-07-24T05:42:18.555Z,17.94
2018-07-24T05:43:18.503Z,18.01
2018-07-24T05:44:18.455Z,18.10
2018-07-24T05:45:18.442Z,18.07
2018-07-24T05:46:18.400Z,18.08
2018-07-24T05:47:18.322Z,18.08
2018-07-24T05:48:18.275Z,18.20
2018-07-24T05:49:18.230Z,18.20
2018-07-24T05:50:18.191Z,18.23
2018-07-24T05:51:18.182Z,18.33
2018-07-24T05:52:18.094Z,18.33
2018-07-24T05:53:18.057Z,18.31
2018-07-24T05:54:18.003Z,18.44
2018-07-24T05:55:17.959Z,18.35
2018-07-24T05:56:17.947Z,18.49
2018-07-24T05:57:17.871Z,18.49
2018-07-24T05:58:17.858Z,18.45
2018-07-24T05:59:17.783Z,18.45
2018-07-24T06:00:17.738Z,18.44
2018-07-24T06:01:17.733Z,18.45
2018-07-24T06:02:17.644Z,18.44
2018-07-24T06:03:17.600Z,18.50
2018-07-24T06:04:17.557Z,18.49
2018-07-24T06:05:17.514Z,18.47
2018-07-24T06:06:17.498Z,18.53
2018-07-24T06:07:17.475Z,18.47
2018-07-24T06:08:17.378Z,18.49
2018-07-24T06:09:17.359Z,18.49
2018-07-24T06:10:17.286Z,18.60
2018-07-24T06:11:17.242Z,18.62
2018-07-24T06:12:17.197Z,18.58
2018-07-24T06:13:17.256Z,18.62
2018-07-24T06:14:17.144Z,18.68
2018-07-24T06:15:17.068Z,18.65
2018-07-24T06:16:17.022Z,18.70
2018-07-24T06:17:17.024Z,18.68
2018-07-24T06:18:16.928Z,18.75
2018-07-24T06:19:16.916Z,18.77
2018-07-24T06:20:16.845Z,18.80
2018-07-24T06:21:16.802Z,18.73
2018-07-24T06:22:16.750Z,18.78
2018-07-24T06:23:16.705Z,18.83
2018-07-24T06:24:16.734Z,18.86
2018-07-24T06:25:16.622Z,18.93
2018-07-24T06:26:16.574Z,18.96
2018-07-24T06:27:16.526Z,18.96
2018-07-24T06:28:16.488Z,19.00
2018-07-24T06:29:16.499Z,18.98
2018-07-24T06:30:16.397Z,19.08
2018-07-24T06:31:16.386Z,19.15
2018-07-24T06:32:16.305Z,19.15
2018-07-24T06:33:16.291Z,19.21
2018-07-24T06:34:16.217Z,19.22
2018-07-24T06:35:16.175Z,19.26
2018-07-24T06:36:16.130Z,19.26
2018-07-24T06:37:16.092Z,19.40
2018-07-24T06:38:16.971Z,19.36
2018-07-24T06:39:15.996Z,19.40
2018-07-24T06:40:15.947Z,19.49
2018-07-24T06:41:15.911Z,19.56
2018-07-24T06:42:15.901Z,19.55
2018-07-24T06:43:15.821Z,19.62
2018-07-24T06:44:15.782Z,19.64
2018-07-24T06:45:15.733Z,19.69
2018-07-24T06:46:15.686Z,19.71
2018-07-24T06:47:15.692Z,19.74
2018-07-24T06:48:15.599Z,19.76
2018-07-24T06:49:15.560Z,19.76
2018-07-24T06:50:15.509Z,19.84
2018-07-24T06:51:15.503Z,19.73
2018-07-24T06:52:15.454Z,19.91
2018-07-24T06:53:15.380Z,19.88
2018-07-24T06:54:15.332Z,19.92
2018-07-24T06:55:15.294Z,20.07
2018-07-24T06:56:15.245Z,20.00
2018-07-24T06:57:15.235Z,20.06
2018-07-24T06:58:15.197Z,20.03
2018-07-24T06:59:15.120Z,20.03
2018-07-24T07:00:15.070Z,20.22
2018-07-24T07:01:15.031Z,20.21
2018-07-24T07:02:15.025Z,20.24
2018-07-24T07:03:14.976Z,20.25
2018-07-24T07:04:14.897Z,20.24
2018-07-24T07:05:14.882Z,20.36
2018-07-24T07:06:14.807Z,20.36
2018-07-24T07:07:14.765Z,20.44
2018-07-24T07:08:14.721Z,20.40
2018-07-24T07:09:14.677Z,20.40
2018-07-24T07:10:14.692Z,20.43
2018-07-24T07:11:14.590Z,20.51
2018-07-24T07:12:14.551Z,20.58
2018-07-24T07:13:14.547Z,20.60
2018-07-24T07:14:14.458Z,20.59
2018-07-24T07:15:14.447Z,20.72
2018-07-24T07:16:14.414Z,20.72
2018-07-24T07:17:14.329Z,20.72
2018-07-24T07:18:14.291Z,20.84
2018-07-24T07:19:14.242Z,20.88
2018-07-24T07:20:14.232Z,20.87
2018-07-24T07:21:14.155Z,20.87
2018-07-24T07:22:14.110Z,21.02
2018-07-24T07:23:14.072Z,20.99
2018-07-24T07:24:14.076Z,21.06
2018-07-24T07:25:13.981Z,21.07
2018-07-24T07:26:13.981Z,21.17
2018-07-24T07:27:13.895Z,21.17
2018-07-24T07:28:13.854Z,21.25
2018-07-24T07:29:13.860Z,21.30
2018-07-24T07:30:13.768Z,21.35
2018-07-24T07:31:13.755Z,21.43
2018-07-24T07:32:13.697Z,21.36
2018-07-24T07:33:13.637Z,21.39
2018-07-24T07:34:13.594Z,21.50
2018-07-24T07:35:13.558Z,21.55
2018-07-24T07:36:13.552Z,21.52
2018-07-24T07:37:13.495Z,21.66
2018-07-24T07:38:13.423Z,21.66
2018-07-24T07:39:13.422Z,21.75
2018-07-24T07:40:13.338Z,21.76
2018-07-24T07:41:13.336Z,21.75
2018-07-24T07:42:13.252Z,21.88
2018-07-24T07:43:13.213Z,21.85
2018-07-24T07:44:13.165Z,21.82
2018-07-24T07:45:13.127Z,22.04
2018-07-24T07:46:13.132Z,22.06
2018-07-24T07:47:13.039Z,22.06
2018-07-24T07:48:12.996Z,22.14
2018-07-24T07:49:12.954Z,22.18
2018-07-24T07:50:12.913Z,22.26
2018-07-24T07:51:12.902Z,22.28
2018-07-24T07:52:12.862Z,22.32
2018-07-24T07:53:12.787Z,22.36
2018-07-24T07:54:12.741Z,22.41
2018-07-24T07:55:12.699Z,22.51
2018-07-24T07:56:12.691Z,22.53
2018-07-24T07:57:12.646Z,22.55
2018-07-24T07:58:12.572Z,22.66
2018-07-24T07:59:12.536Z,22.69
2018-07-24T08:00:12.488Z,22.68
2018-07-24T08:01:12.447Z,22.76
2018-07-24T08:02:12.444Z,22.80
2018-07-24T08:03:12.364Z,22.88
2018-07-24T08:04:12.339Z,22.96
2018-07-24T08:05:12.280Z,22.94
2018-07-24T08:06:12.235Z,23.00
2018-07-24T08:07:12.226Z,23.03
2018-07-24T08:08:12.152Z,23.18
2018-07-24T08:09:12.111Z,23.09
2018-07-24T08:10:12.090Z,23.10
2018-07-24T08:11:12.026Z,23.27
2018-07-24T08:12:12.042Z,23.36
2018-07-24T08:13:11.942Z,23.39
2018-07-24T08:14:11.927Z,23.54
2018-07-24T08:15:11.859Z,23.59
2018-07-24T08:16:11.819Z,23.59
2018-07-24T08:17:11.819Z,23.74
2018-07-24T08:18:11.747Z,23.78
2018-07-24T08:19:11.693Z,23.92
2018-07-24T08:20:11.651Z,23.92
2018-07-24T08:21:11.608Z,24.05
2018-07-24T08:22:11.638Z,24.17
2018-07-24T08:23:11.527Z,24.30
2018-07-24T08:24:11.520Z,24.33
2018-07-24T08:25:11.444Z,24.54
2018-07-24T08:26:11.399Z,24.61
2018-07-24T08:27:11.360Z,24.73
2018-07-24T08:28:11.446Z,24.89
2018-07-24T08:29:11.279Z,25.03
2018-07-24T08:30:11.283Z,25.17
2018-07-24T08:31:11.195Z,25.44
2018-07-24T08:32:11.186Z,25.48
2018-07-24T08:33:11.116Z,25.81
2018-07-24T08:34:11.074Z,25.91
2018-07-24T08:35:11.033Z,26.23
2018-07-24T08:36:11.058Z,26.33
2018-07-24T08:37:10.952Z,26.62
2018-07-24T08:38:10.912Z,26.75
2018-07-24T08:39:10.878Z,27.00
2018-07-24T08:40:10.828Z,27.21
2018-07-24T08:41:10.823Z,27.63
2018-07-24T08:42:10.750Z,27.82
2018-07-24T08:43:10.743Z,28.05
2018-07-24T08:44:10.670Z,28.32
2018-07-24T08:45:10.628Z,28.60
2018-07-24T08:46:10.589Z,28.78
2018-07-24T08:47:10.549Z,29.01
2018-07-24T08:48:10.545Z,29.17
2018-07-24T08:49:10.532Z,29.31
2018-07-24T08:50:10.431Z,29.42
2018-07-24T08:51:10.411Z,29.53
2018-07-24T08:52:10.357Z,29.65
2018-07-24T08:53:10.524Z,29.79
2018-07-24T08:54:10.344Z,29.94
2018-07-24T08:55:10.483Z,30.02
2018-07-24T08:56:10.194Z,30.15
2018-07-24T08:57:10.153Z,30.18
2018-07-24T08:58:10.152Z,30.30
2018-07-24T08:59:10.109Z,30.47
2018-07-24T09:00:10.047Z,30.66
2018-07-24T09:01:09.998Z,30.66
2018-07-24T09:02:09.964Z,30.83
2018-07-24T09:03:10.056Z,30.91
2018-07-24T09:04:09.928Z,31.22
2018-07-24T09:05:09.879Z,31.34
2018-07-24T09:06:09.803Z,31.44
2018-07-24T09:07:09.803Z,31.55
2018-07-24T09:08:09.732Z,31.61
2018-07-24T09:09:09.724Z,31.71
2018-07-24T09:10:09.659Z,31.70
2018-07-24T09:11:09.614Z,31.87
2018-07-24T09:12:09.579Z,31.99
2018-07-24T09:13:09.573Z,32.08
2018-07-24T09:14:09.540Z,32.21
2018-07-24T09:15:09.466Z,32.22
2018-07-24T09:16:09.428Z,32.49
2018-07-24T09:17:09.391Z,32.65
2018-07-24T09:18:09.354Z,32.78
2018-07-24T09:19:09.350Z,32.90
2018-07-24T09:20:09.280Z,32.78
2018-07-24T09:21:09.250Z,32.78
2018-07-24T09:22:09.202Z,32.75
2018-07-24T09:23:09.165Z,32.85
2018-07-24T09:24:09.160Z,32.68
2018-07-24T09:25:09.127Z,32.67
2018-07-24T09:26:09.052Z,32.68
2018-07-24T09:27:09.019Z,32.86
2018-07-24T09:28:08.986Z,32.78
2018-07-24T09:29:08.949Z,32.74
2018-07-24T09:30:08.947Z,32.85
2018-07-24T09:31:08.869Z,32.97
2018-07-24T09:32:08.844Z,33.14
2018-07-24T09:33:08.802Z,33.37
2018-07-24T09:34:08.763Z,33.43
2018-07-24T09:35:08.779Z,33.24
2018-07-24T09:36:08.686Z,33.24
2018-07-24T09:37:08.654Z,33.23
2018-07-24T09:38:08.614Z,33.28
2018-07-24T09:39:08.576Z,33.49
2018-07-24T09:40:08.573Z,33.65
2018-07-24T09:41:08.504Z,33.64
2018-07-24T09:42:08.473Z,33.61
2018-07-24T09:43:08.459Z,33.65
2018-07-24T09:44:08.422Z,33.71
2018-07-24T09:45:08.390Z,33.76
2018-07-24T09:46:08.322Z,33.76
2018-07-24T09:47:08.286Z,33.96
2018-07-24T09:48:08.251Z,34.08
2018-07-24T09:49:08.253Z,33.80
2018-07-24T09:50:08.179Z,33.81
2018-07-24T09:51:08.140Z,33.68
2018-07-24T09:52:08.104Z,33.47
2018-07-24T09:53:08.069Z,33.32
2018-07-24T09:54:08.075Z,33.32
2018-07-24T09:55:08.001Z,33.43
2018-07-24T09:56:07.958Z,33.73
2018-07-24T09:57:07.928Z,33.83
2018-07-24T09:58:07.890Z,33.99
2018-07-24T09:59:07.895Z,34.18
2018-07-24T10:00:07.817Z,34.23
2018-07-24T10:01:07.781Z,34.17
2018-07-24T10:02:07.746Z,34.29
2018-07-24T10:03:07.710Z,34.36
2018-07-24T10:04:07.708Z,34.50
2018-07-24T10:05:07.676Z,34.54
2018-07-24T10:06:07.603Z,34.54
2018-07-24T10:07:07.566Z,34.43
2018-07-24T10:08:07.531Z,34.38
2018-07-24T10:09:07.497Z,34.45
2018-07-24T10:10:07.491Z,34.03
2018-07-24T10:11:07.456Z,33.95
2018-07-24T10:12:07.406Z,34.01
2018-07-24T10:13:07.435Z,34.02
2018-07-24T10:14:07.317Z,33.90
2018-07-24T10:15:07.314Z,33.46
2018-07-24T10:16:07.249Z,33.28
2018-07-24T10:17:07.218Z,33.47
2018-07-24T10:18:07.176Z,33.69
2018-07-24T10:19:07.148Z,34.01
2018-07-24T10:20:07.144Z,34.35
2018-07-24T10:21:07.101Z,34.35
2018-07-24T10:22:07.035Z,34.25
2018-07-24T10:23:07.008Z,33.92
2018-07-24T10:24:06.969Z,33.81
2018-07-24T10:25:06.930Z,33.57
2018-07-24T10:26:06.925Z,33.71
2018-07-24T10:27:06.863Z,33.87
2018-07-24T10:28:06.830Z,34.13
2018-07-24T10:29:06.795Z,34.50
2018-07-24T10:30:06.752Z,34.51
2018-07-24T10:31:06.748Z,34.66
2018-07-24T10:32:06.717Z,34.74
2018-07-24T10:33:06.653Z,34.93
2018-07-24T10:34:06.612Z,35.08
2018-07-24T10:35:06.579Z,35.15
2018-07-24T10:36:06.576Z,34.83
2018-07-24T10:37:06.557Z,34.42
2018-07-24T10:38:06.512Z,34.20
2018-07-24T10:39:06.436Z,34.18
2018-07-24T10:40:06.404Z,33.99
2018-07-24T10:41:06.370Z,33.69
2018-07-24T10:42:06.384Z,33.53
2018-07-24T10:43:06.351Z,33.76
2018-07-24T10:44:06.261Z,34.10
2018-07-24T10:45:06.233Z,34.24
2018-07-24T10:46:06.194Z,34.36
2018-07-24T10:47:06.194Z,34.40
2018-07-24T10:48:06.161Z,34.39
2018-07-24T10:49:06.089Z,34.60
2018-07-24T10:50:06.053Z,34.92
2018-07-24T10:51:06.020Z,35.12
2018-07-24T10:52:05.983Z,35.41
2018-07-24T10:53:05.995Z,35.67
2018-07-24T10:54:05.913Z,35.76
2018-07-24T10:55:05.882Z,35.90
2018-07-24T10:56:05.848Z,35.92
2018-07-24T10:57:05.813Z,36.14
2018-07-24T10:58:05.809Z,36.36
2018-07-24T10:59:05.742Z,36.43
2018-07-24T11:00:05.740Z,36.61
2018-07-24T11:01:05.671Z,36.74
2018-07-24T11:02:05.639Z,36.89
2018-07-24T11:03:05.649Z,37.01
2018-07-24T11:04:05.569Z,37.11
2018-07-24T11:05:05.571Z,37.11
2018-07-24T11:06:05.503Z,36.92
2018-07-24T11:07:05.469Z,36.80
2018-07-24T11:08:05.465Z,36.80
2018-07-24T11:09:05.402Z,36.57
2018-07-24T11:10:05.377Z,36.27
2018-07-24T11:11:05.439Z,35.37
2018-07-24T11:12:05.301Z,34.78
2018-07-24T11:13:05.314Z,34.67
2018-07-24T11:14:05.234Z,34.48
2018-07-24T11:15:05.203Z,34.42
2018-07-24T11:16:05.200Z,34.38
2018-07-24T11:17:05.135Z,34.40
2018-07-24T11:18:05.119Z,34.50
2018-07-24T11:19:05.061Z,34.70
2018-07-24T11:20:05.031Z,34.77
2018-07-24T11:21:05.026Z,34.96
2018-07-24T11:22:05.230Z,35.17
2018-07-24T11:23:05.144Z,35.30
2018-07-24T11:24:04.894Z,35.51
2018-07-24T11:25:04.860Z,35.48
2018-07-24T11:26:04.822Z,35.55
2018-07-24T11:27:04.822Z,35.31
2018-07-24T11:28:04.756Z,35.19
2018-07-24T11:29:04.728Z,34.99
2018-07-24T11:30:04.720Z,35.07
2018-07-24T11:31:04.651Z,35.11
2018-07-24T11:32:04.650Z,35.30
2018-07-24T11:33:04.597Z,35.37
2018-07-24T11:34:04.584Z,35.33
2018-07-24T11:35:04.518Z,35.22
2018-07-24T11:36:04.591Z,35.15
2018-07-24T11:37:04.484Z,35.41
2018-07-24T11:38:04.414Z,35.58
2018-07-24T11:39:04.378Z,35.73
2018-07-24T11:40:04.348Z,35.68
2018-07-24T11:41:04.334Z,36.02
2018-07-24T11:42:04.312Z,36.21
2018-07-24T11:43:04.243Z,36.24
2018-07-24T11:44:04.259Z,36.39
2018-07-24T11:45:04.212Z,36.51
2018-07-24T11:46:04.144Z,36.73
2018-07-24T11:47:04.110Z,36.37
2018-07-24T11:48:04.074Z,36.07
2018-07-24T11:49:04.041Z,35.70
2018-07-24T11:50:04.051Z,35.45
2018-07-24T11:51:04.003Z,35.27
2018-07-24T11:52:03.944Z,34.78
2018-07-24T11:53:03.916Z,34.40
2018-07-24T11:54:03.885Z,34.40
2018-07-24T11:55:03.873Z,34.30
2018-07-24T11:56:03.802Z,34.20
2018-07-24T11:57:03.809Z,34.16
2018-07-24T11:58:03.740Z,34.17
2018-07-24T11:59:03.714Z,34.17
2018-07-24T12:00:03.685Z,34.11
2018-07-24T12:01:03.638Z,34.14
2018-07-24T12:02:03.638Z,34.33
2018-07-24T12:03:03.567Z,34.60
2018-07-24T12:04:03.532Z,34.85
2018-07-24T12:05:03.498Z,35.14
2018-07-24T12:06:03.466Z,35.33
2018-07-24T12:07:03.457Z,35.64
2018-07-24T12:08:03.397Z,35.79
2018-07-24T12:09:03.365Z,36.07
2018-07-24T12:10:03.360Z,36.18
2018-07-24T12:11:03.297Z,36.33
2018-07-24T12:12:03.258Z,36.39
2018-07-24T12:13:03.247Z,36.24
2018-07-24T12:14:03.192Z,36.33
2018-07-24T12:15:03.228Z,36.39
2018-07-24T12:16:03.127Z,36.54
2018-07-24T12:17:03.092Z,36.46
2018-07-24T12:18:03.059Z,36.21
2018-07-24T12:19:03.060Z,35.89
2018-07-24T12:20:02.999Z,35.19
2018-07-24T12:21:02.961Z,34.99
2018-07-24T12:22:02.921Z,34.88
2018-07-24T12:23:02.890Z,34.81
2018-07-24T12:24:02.892Z,35.00
2018-07-24T12:25:02.825Z,34.85
2018-07-24T12:26:02.789Z,35.10
2018-07-24T12:27:02.806Z,35.29
2018-07-24T12:28:02.720Z,35.41
2018-07-24T12:29:02.721Z,35.37
2018-07-24T12:30:02.805Z,35.71
2018-07-24T12:31:02.618Z,36.02
2018-07-24T12:32:02.588Z,36.28
2018-07-24T12:33:02.553Z,36.49
2018-07-24T12:34:02.519Z,36.54
2018-07-24T12:35:02.514Z,36.68
2018-07-24T12:36:02.592Z,36.62
2018-07-24T12:37:02.422Z,36.68
2018-07-24T12:38:02.386Z,36.84
2018-07-24T12:39:02.350Z,37.02
2018-07-24T12:40:02.347Z,37.20
2018-07-24T12:41:02.322Z,36.99
2018-07-24T12:42:02.248Z,37.06
2018-07-24T12:43:02.213Z,36.96
2018-07-24T12:44:02.186Z,37.02
2018-07-24T12:45:02.153Z,37.10
2018-07-24T12:46:02.150Z,37.13
2018-07-24T12:47:02.081Z,37.11
2018-07-24T12:48:02.047Z,37.01
2018-07-24T12:49:02.016Z,37.11
2018-07-24T12:50:01.981Z,37.32
2018-07-24T12:51:01.991Z,37.47
2018-07-24T12:52:02.559Z,37.60